Time;durP1;ratioP1;P1;durP2;ratioP2;P2;SDS_P1;SDS_P2;PMS_P1;PMS_P2;Temp;Humidity;BMP_temperature;BMP_pressure;BME280_temperature;BME280_humidity;BME280_pressure;Samples;Min_cycle;Max_cycle;Signal;HPM_P1;HPM_P2
2023/09/23 00:01:50;;;;;;;5.57;1.83;;;;;;;;;;5072217;28;20392;-90
2023/09/23 00:04:16;;;;;;;7.68;1.90;;;;;;;;;;5065380;28;20104;-90
2023/09/23 00:06:42;;;;;;;4.80;1.85;;;;;;;;;;5061924;28;20046;-90
2023/09/23 00:09:08;;;;;;;4.10;1.40;;;;;;;;;;5071521;28;20396;-90
2023/09/23 00:11:34;;;;;;;7.30;1.75;;;;;;;;;;5063589;28;20024;-90
2023/09/23 00:14:01;;;;;;;8.13;1.98;;;;;;;;;;5066020;28;20021;-90
2023/09/23 00:16:26;;;;;;;4.50;1.75;;;;;;;;;;5071201;28;20031;-90
2023/09/23 00:18:51;;;;;;;4.80;1.85;;;;;;;;;;5072406;28;20021;-90
2023/09/23 00:21:17;;;;;;;5.68;1.67;;;;;;;;;;5071842;28;20024;-90
2023/09/23 00:23:44;;;;;;;4.97;1.50;;;;;;;;;;5072912;28;20074;-90
2023/09/23 00:26:11;;;;;;;1.85;1.40;;;;;;;;;;5072438;28;20025;-89
2023/09/23 00:28:36;;;;;;;4.20;1.50;;;;;;;;;;5073230;28;20021;-89
2023/09/23 00:31:07;;;;;;;6.57;1.58;;;;;;;;;;5068365;28;20104;-89
2023/09/23 00:33:37;;;;;;;3.55;1.10;;;;;;;;;;5092043;28;20024;-89
2023/09/23 00:36:08;;;;;;;3.85;1.25;;;;;;;;;;5060044;28;20048;-90
2023/09/23 00:38:34;;;;;;;2.63;1.40;;;;;;;;;;5073513;28;20017;-90
2023/09/23 00:40:59;;;;;;;3.70;1.30;;;;;;;;;;5066476;28;20036;-90
2023/09/23 00:43:25;;;;;;;6.68;1.80;;;;;;;;;;5069964;28;20032;-90
2023/09/23 00:45:54;;;;;;;5.47;1.70;;;;;;;;;;5062738;28;20017;-89
2023/09/23 00:48:21;;;;;;;5.25;1.50;;;;;;;;;;5068322;28;20028;-90
2023/09/23 00:50:47;;;;;;;3.60;1.35;;;;;;;;;;5071337;28;20020;-90
2023/09/23 00:53:13;;;;;;;1.83;1.10;;;;;;;;;;5072318;28;20464;-91
2023/09/23 00:55:42;;;;;;;4.38;1.10;;;;;;;;;;5072010;28;20380;-91
2023/09/23 00:58:10;;;;;;;3.88;1.45;;;;;;;;;;5058897;28;20116;-90
2023/09/23 01:00:36;;;;;;;4.97;1.70;;;;;;;;;;5070899;28;20032;-90
2023/09/23 01:03:02;;;;;;;3.67;1.10;;;;;;;;;;5072379;28;20021;-90
2023/09/23 01:05:28;;;;;;;5.28;1.10;;;;;;;;;;5059101;28;20025;-90
2023/09/23 01:08:11;;;;;;;4.00;1.23;;;;;;;;;;5071454;28;20100;-90
2023/09/23 01:10:36;;;;;;;5.93;1.08;;;;;;;;;;5071768;28;20484;-90
2023/09/23 01:13:08;;;;;;;5.95;1.17;;;;;;;;;;5071627;28;20028;-90
2023/09/23 01:15:34;;;;;;;5.05;1.20;;;;;;;;;;5072156;28;20025;-90
2023/09/23 01:18:00;;;;;;;4.63;1.20;;;;;;;;;;5071813;28;20025;-90
2023/09/23 01:20:25;;;;;;;4.07;1.00;;;;;;;;;;5071555;28;20090;-90
2023/09/23 01:22:52;;;;;;;5.35;1.35;;;;;;;;;;5071912;28;20112;-91
2023/09/23 01:25:18;;;;;;;8.70;1.33;;;;;;;;;;5075486;28;20108;-90
2023/09/23 01:27:43;;;;;;;4.10;1.17;;;;;;;;;;5075233;28;20021;-89
2023/09/23 01:30:11;;;;;;;3.53;0.90;;;;;;;;;;5063468;28;20032;-90
2023/09/23 01:32:37;;;;;;;1.83;0.88;;;;;;;;;;5068164;28;20065;-90
2023/09/23 01:35:05;;;;;;;2.45;0.98;;;;;;;;;;5075212;28;20454;-90
2023/09/23 01:37:31;;;;;;;10.50;1.40;;;;;;;;;;5064521;28;20021;-90
2023/09/23 01:39:56;;;;;;;3.25;0.98;;;;;;;;;;5070886;28;20459;-89
2023/09/23 01:42:21;;;;;;;3.92;1.10;;;;;;;;;;5067139;28;20025;-89
2023/09/23 01:44:48;;;;;;;5.45;1.38;;;;;;;;;;5070745;28;20482;-89
2023/09/23 01:47:16;;;;;;;4.05;1.10;;;;;;;;;;5062624;28;20029;-89
2023/09/23 01:49:44;;;;;;;4.50;1.15;;;;;;;;;;5074596;28;20025;-89
2023/09/23 01:52:09;;;;;;;1.52;1.02;;;;;;;;;;5076148;28;20016;-89
2023/09/23 01:54:35;;;;;;;5.00;1.00;;;;;;;;;;5075846;28;20019;-89
2023/09/23 01:57:02;;;;;;;1.98;1.08;;;;;;;;;;5075692;28;20079;-90
2023/09/23 01:59:28;;;;;;;7.82;1.17;;;;;;;;;;5076500;28;20513;-89
2023/09/23 02:01:53;;;;;;;3.88;0.95;;;;;;;;;;5076990;28;20024;-89
2023/09/23 02:04:19;;;;;;;2.22;1.05;;;;;;;;;;5076298;28;20047;-90
2023/09/23 02:06:44;;;;;;;3.30;1.00;;;;;;;;;;5066325;28;20389;-89
2023/09/23 02:09:10;;;;;;;2.33;0.90;;;;;;;;;;5069069;28;20021;-89
2023/09/23 02:11:38;;;;;;;2.20;1.00;;;;;;;;;;5066389;28;20031;-89
2023/09/23 02:14:04;;;;;;;6.47;0.95;;;;;;;;;;5068601;28;20128;-89
2023/09/23 02:16:30;;;;;;;4.35;1.30;;;;;;;;;;5063736;28;20142;-89
2023/09/23 02:18:55;;;;;;;4.55;1.23;;;;;;;;;;5065980;28;20016;-89
2023/09/23 02:21:20;;;;;;;2.97;0.82;;;;;;;;;;5070793;28;20032;-89
2023/09/23 02:23:46;;;;;;;3.55;1.10;;;;;;;;;;5074540;28;20017;-89
2023/09/23 02:26:12;;;;;;;6.78;1.30;;;;;;;;;;5074507;28;20039;-89
2023/09/23 02:28:38;;;;;;;1.42;0.77;;;;;;;;;;5063398;28;20533;-90
2023/09/23 02:31:03;;;;;;;5.22;1.20;;;;;;;;;;5057446;28;20024;-90
2023/09/23 02:33:30;;;;;;;7.60;1.20;;;;;;;;;;5074257;28;20504;-90
2023/09/23 02:35:56;;;;;;;4.65;1.30;;;;;;;;;;5059951;28;20086;-90
2023/09/23 02:38:22;;;;;;;5.63;1.17;;;;;;;;;;5074036;28;20071;-90
2023/09/23 02:40:49;;;;;;;3.20;1.30;;;;;;;;;;5073497;28;20028;-90
2023/09/23 02:43:18;;;;;;;8.18;1.00;;;;;;;;;;5074125;28;20333;-91
2023/09/23 02:45:44;;;;;;;5.95;1.92;;;;;;;;;;5073824;28;20116;-91
2023/09/23 02:48:11;;;;;;;2.75;1.00;;;;;;;;;;5073685;28;20040;-90
2023/09/23 02:50:37;;;;;;;5.45;1.30;;;;;;;;;;5073127;28;20032;-91
2023/09/23 02:53:02;;;;;;;5.07;1.20;;;;;;;;;;5073638;28;20017;-90
2023/09/23 02:55:28;;;;;;;6.05;1.27;;;;;;;;;;5073683;28;20020;-90
2023/09/23 02:57:55;;;;;;;3.22;0.90;;;;;;;;;;5073746;28;20044;-90
2023/09/23 03:00:22;;;;;;;2.88;1.20;;;;;;;;;;5073416;28;20030;-90
2023/09/23 03:02:52;;;;;;;1.73;0.93;;;;;;;;;;5074535;28;20468;-91
2023/09/23 03:05:18;;;;;;;4.93;1.25;;;;;;;;;;5073547;28;20103;-90
2023/09/23 03:07:48;;;;;;;4.85;1.13;;;;;;;;;;5073927;28;20060;-90
2023/09/23 03:10:18;;;;;;;4.80;1.05;;;;;;;;;;5066644;28;20055;-90
2023/09/23 03:12:51;;;;;;;1.98;1.10;;;;;;;;;;5064436;28;20017;-90
2023/09/23 03:15:17;;;;;;;2.97;1.00;;;;;;;;;;5070357;28;20017;-91
2023/09/23 03:17:50;;;;;;;6.38;1.30;;;;;;;;;;5073171;28;20013;-91
2023/09/23 03:20:20;;;;;;;3.78;1.48;;;;;;;;;;5065119;28;20052;-90
2023/09/23 03:22:45;;;;;;;2.67;1.00;;;;;;;;;;5065119;28;20088;-89
2023/09/23 03:25:11;;;;;;;4.03;1.10;;;;;;;;;;5053724;28;20017;-89
2023/09/23 03:27:38;;;;;;;6.05;1.42;;;;;;;;;;5057906;28;20020;-90
2023/09/23 03:30:11;;;;;;;3.78;1.02;;;;;;;;;;5073646;28;20043;-90
2023/09/23 03:32:37;;;;;;;2.08;1.05;;;;;;;;;;5064851;28;20094;-90
2023/09/23 03:35:03;;;;;;;4.55;1.50;;;;;;;;;;5072945;28;20511;-90
2023/09/23 03:37:29;;;;;;;5.05;0.98;;;;;;;;;;5070669;28;20016;-90
2023/09/23 03:39:55;;;;;;;4.30;1.13;;;;;;;;;;5058884;28;20102;-90
2023/09/23 03:42:20;;;;;;;7.97;1.15;;;;;;;;;;5052890;28;20029;-90
2023/09/23 03:44:46;;;;;;;4.10;1.08;;;;;;;;;;5072813;28;20046;-89
2023/09/23 03:47:16;;;;;;;4.18;1.20;;;;;;;;;;5060454;28;20029;-89
2023/09/23 03:49:41;;;;;;;2.88;1.05;;;;;;;;;;5056839;28;20421;-90
2023/09/23 03:52:06;;;;;;;3.85;1.30;;;;;;;;;;5062811;28;20096;-90
2023/09/23 03:54:33;;;;;;;3.10;1.30;;;;;;;;;;5072405;28;20032;-89
2023/09/23 03:56:58;;;;;;;3.30;1.35;;;;;;;;;;5072365;28;20055;-89
2023/09/23 03:59:24;;;;;;;1.98;0.85;;;;;;;;;;5072511;28;20021;-89
2023/09/23 04:01:50;;;;;;;6.03;1.00;;;;;;;;;;5069277;28;20017;-90
2023/09/23 04:04:17;;;;;;;3.95;1.15;;;;;;;;;;5072327;28;20085;-89
2023/09/23 04:06:43;;;;;;;5.30;1.10;;;;;;;;;;5072372;28;20051;-89
2023/09/23 04:09:10;;;;;;;5.40;1.38;;;;;;;;;;5061665;28;20090;-89
2023/09/23 04:11:35;;;;;;;8.95;2.35;;;;;;;;;;5068767;28;20021;-90
2023/09/23 04:14:00;;;;;;;3.13;1.63;;;;;;;;;;5073639;28;20011;-90
2023/09/23 04:16:26;;;;;;;6.50;1.13;;;;;;;;;;5072495;28;20357;-90
2023/09/23 04:18:52;;;;;;;3.92;1.08;;;;;;;;;;5072563;28;20009;-89
2023/09/23 04:21:20;;;;;;;2.78;1.30;;;;;;;;;;5072023;28;20103;-90
2023/09/23 04:23:45;;;;;;;13.18;1.50;;;;;;;;;;5072640;28;20467;-90
2023/09/23 04:26:12;;;;;;;3.65;1.20;;;;;;;;;;5065825;28;20495;-89
2023/09/23 04:28:38;;;;;;;7.20;1.80;;;;;;;;;;5066016;28;20025;-89
2023/09/23 04:31:03;;;;;;;4.13;1.80;;;;;;;;;;5066885;28;20032;-89
2023/09/23 04:33:29;;;;;;;5.13;1.23;;;;;;;;;;5064097;28;20032;-90
2023/09/23 04:35:58;;;;;;;5.88;1.30;;;;;;;;;;5072752;28;20028;-90
2023/09/23 04:38:24;;;;;;;3.30;1.38;;;;;;;;;;5073137;28;20017;-89
2023/09/23 04:40:50;;;;;;;7.43;1.25;;;;;;;;;;5072276;28;20055;-89
2023/09/23 04:43:25;;;;;;;2.28;1.20;;;;;;;;;;5072571;28;20017;-89
2023/09/23 04:45:50;;;;;;;5.05;1.17;;;;;;;;;;5071197;28;20020;-89
2023/09/23 04:48:18;;;;;;;3.78;1.30;;;;;;;;;;5058902;28;20021;-89
2023/09/23 04:50:46;;;;;;;4.53;1.40;;;;;;;;;;5071471;28;20443;-90
2023/09/23 04:53:11;;;;;;;3.42;1.10;;;;;;;;;;5071491;28;20021;-89
2023/09/23 04:55:37;;;;;;;6.68;1.40;;;;;;;;;;5071695;28;20486;-89
2023/09/23 04:58:02;;;;;;;3.70;1.15;;;;;;;;;;5072426;28;20032;-89
2023/09/23 05:00:32;;;;;;;4.22;1.48;;;;;;;;;;5075371;28;20021;-89
2023/09/23 05:03:01;;;;;;;4.07;1.30;;;;;;;;;;5075903;28;20028;-89
2023/09/23 05:05:26;;;;;;;7.85;1.40;;;;;;;;;;5075693;28;20092;-90
2023/09/23 05:07:51;;;;;;;2.30;1.20;;;;;;;;;;5075214;28;20020;-90
2023/09/23 05:10:17;;;;;;;4.68;1.50;;;;;;;;;;5055712;28;20024;-89
2023/09/23 05:12:44;;;;;;;6.53;1.30;;;;;;;;;;5068184;28;20020;-90
2023/09/23 05:15:10;;;;;;;7.50;1.20;;;;;;;;;;5075671;28;20023;-90
2023/09/23 05:17:36;;;;;;;3.88;1.65;;;;;;;;;;5075282;28;20111;-90
2023/09/23 05:20:09;;;;;;;6.60;1.70;;;;;;;;;;5075381;28;20020;-90
2023/09/23 05:22:35;;;;;;;12.05;1.60;;;;;;;;;;5075296;28;20030;-90
2023/09/23 05:25:01;;;;;;;5.53;1.70;;;;;;;;;;5071303;28;20021;-90
2023/09/23 05:27:29;;;;;;;4.00;1.63;;;;;;;;;;5075454;28;20066;-88
2023/09/23 05:29:55;;;;;;;5.47;1.70;;;;;;;;;;5076738;28;20028;-89
2023/09/23 05:32:20;;;;;;;6.60;1.65;;;;;;;;;;5076938;28;20019;-88
2023/09/23 05:34:45;;;;;;;7.45;1.50;;;;;;;;;;5067783;28;20013;-89
2023/09/23 05:37:11;;;;;;;4.05;1.50;;;;;;;;;;5069703;28;20016;-88
2023/09/23 05:39:37;;;;;;;8.30;1.58;;;;;;;;;;5070842;28;20101;-88
2023/09/23 05:42:02;;;;;;;6.57;1.38;;;;;;;;;;5067930;28;20074;-88
2023/09/23 05:44:27;;;;;;;9.35;1.75;;;;;;;;;;5076535;28;20467;-88
2023/09/23 05:46:53;;;;;;;6.45;1.83;;;;;;;;;;5076874;28;20040;-89
2023/09/23 05:49:18;;;;;;;8.38;2.10;;;;;;;;;;5062379;28;20024;-88
2023/09/23 05:51:45;;;;;;;9.05;1.98;;;;;;;;;;5076845;28;20025;-89
2023/09/23 05:54:11;;;;;;;4.90;1.75;;;;;;;;;;5063689;28;20025;-89
2023/09/23 05:56:36;;;;;;;4.40;1.70;;;;;;;;;;5060669;28;20027;-89
2023/09/23 05:59:02;;;;;;;5.80;1.50;;;;;;;;;;5078034;28;20024;-89
2023/09/23 06:01:27;;;;;;;8.05;1.45;;;;;;;;;;5060883;28;20069;-89
2023/09/23 06:03:53;;;;;;;6.10;1.70;;;;;;;;;;5075097;28;20013;-89
2023/09/23 06:06:18;;;;;;;8.95;1.90;;;;;;;;;;5075077;28;20021;-89
2023/09/23 06:08:46;;;;;;;5.82;1.52;;;;;;;;;;5074781;28;20021;-89
2023/09/23 06:11:14;;;;;;;5.28;1.58;;;;;;;;;;5060776;28;20551;-89
2023/09/23 06:13:40;;;;;;;7.85;1.73;;;;;;;;;;5060843;28;20414;-88
2023/09/23 06:16:05;;;;;;;3.60;1.50;;;;;;;;;;5074714;28;20020;-89
2023/09/23 06:18:31;;;;;;;19.83;2.55;;;;;;;;;;5070874;28;20115;-89
2023/09/23 06:21:00;;;;;;;5.95;1.55;;;;;;;;;;5054006;28;20040;-87
2023/09/23 06:23:28;;;;;;;4.88;1.67;;;;;;;;;;5070502;28;20025;-89
2023/09/23 06:25:54;;;;;;;3.53;1.52;;;;;;;;;;5074442;28;20055;-90
2023/09/23 06:28:19;;;;;;;5.97;1.75;;;;;;;;;;5074532;28;20093;-91
2023/09/23 06:30:44;;;;;;;5.10;1.80;;;;;;;;;;5073249;28;20504;-90
2023/09/23 06:33:10;;;;;;;6.25;1.98;;;;;;;;;;5065771;28;20021;-92
2023/09/23 06:35:35;;;;;;;7.57;2.45;;;;;;;;;;5058540;28;20088;-91
2023/09/23 06:38:01;;;;;;;6.18;1.98;;;;;;;;;;5067623;28;20510;-92
2023/09/23 06:40:26;;;;;;;4.88;1.70;;;;;;;;;;5058431;28;21268;-91
2023/09/23 06:42:51;;;;;;;5.07;1.67;;;;;;;;;;5073389;28;20111;-91
2023/09/23 06:45:18;;;;;;;11.80;1.75;;;;;;;;;;5074337;28;20021;-91
2023/09/23 06:47:44;;;;;;;7.30;2.13;;;;;;;;;;5073570;28;20373;-92
2023/09/23 06:50:10;;;;;;;5.13;1.63;;;;;;;;;;5073836;28;20025;-92
2023/09/23 06:52:35;;;;;;;5.13;1.65;;;;;;;;;;5073183;28;20032;-91
2023/09/23 06:55:03;;;;;;;3.55;0.90;;;;;;;;;;5074445;28;20036;-92
2023/09/23 06:57:32;;;;;;;6.45;1.60;;;;;;;;;;5074316;28;20085;-91
2023/09/23 06:59:58;;;;;;;5.05;1.92;;;;;;;;;;5074794;28;20009;-92
2023/09/23 07:02:23;;;;;;;4.32;1.50;;;;;;;;;;5071659;28;20019;-92
2023/09/23 07:04:49;;;;;;;6.22;1.70;;;;;;;;;;5061230;28;20009;-92
2023/09/23 07:07:14;;;;;;;5.18;1.60;;;;;;;;;;5066312;28;20025;-90
2023/09/23 07:09:39;;;;;;;2.67;1.70;;;;;;;;;;5072243;28;20013;-91
2023/09/23 07:12:06;;;;;;;5.32;1.33;;;;;;;;;;5069188;28;20029;-93
2023/09/23 07:14:37;;;;;;;5.38;1.60;;;;;;;;;;5073478;28;20069;-92
2023/09/23 07:17:04;;;;;;;4.45;1.67;;;;;;;;;;5073934;28;20491;-92
2023/09/23 07:19:29;;;;;;;6.07;1.83;;;;;;;;;;5073588;28;20025;-92
2023/09/23 07:21:54;;;;;;;4.95;1.33;;;;;;;;;;5072708;28;20034;-92
2023/09/23 07:24:23;;;;;;;3.17;0.95;;;;;;;;;;5067794;28;20025;-93
2023/09/23 07:26:48;;;;;;;3.85;1.63;;;;;;;;;;5062476;28;20033;-92
2023/09/23 07:29:13;;;;;;;5.28;1.60;;;;;;;;;;5066030;28;20081;-92
2023/09/23 07:31:39;;;;;;;5.63;1.50;;;;;;;;;;5066087;28;20455;-90
2023/09/23 07:34:04;;;;;;;4.15;1.70;;;;;;;;;;5067564;28;20443;-89
2023/09/23 07:36:29;;;;;;;4.65;1.50;;;;;;;;;;5066388;28;20498;-92
2023/09/23 07:38:54;;;;;;;1.05;0.57;;;;;;;;;;5067757;28;20016;-90
2023/09/23 07:41:20;;;;;;;6.55;1.33;;;;;;;;;;5093895;28;20073;-91
2023/09/23 07:43:46;;;;;;;5.32;1.80;;;;;;;;;;5069675;28;20021;-91
2023/09/23 07:46:11;;;;;;;7.88;1.92;;;;;;;;;;5062144;28;20060;-90
2023/09/23 07:48:37;;;;;;;8.68;1.42;;;;;;;;;;5065566;28;20079;-90
2023/09/23 07:51:02;;;;;;;5.93;1.90;;;;;;;;;;5067433;28;20078;-91
2023/09/23 07:53:27;;;;;;;4.57;1.10;;;;;;;;;;5093364;28;20103;-91
2023/09/23 07:55:53;;;;;;;6.07;1.70;;;;;;;;;;5070358;28;20055;-90
2023/09/23 07:58:18;;;;;;;7.45;1.85;;;;;;;;;;5061479;28;20023;-91
2023/09/23 08:00:46;;;;;;;7.00;1.75;;;;;;;;;;5068669;28;20020;-90
2023/09/23 08:03:11;;;;;;;5.35;1.48;;;;;;;;;;5073762;28;20081;-90
2023/09/23 08:05:37;;;;;;;6.60;1.70;;;;;;;;;;5062270;28;20024;-91
2023/09/23 08:08:02;;;;;;;3.97;1.33;;;;;;;;;;5072579;28;20033;-90
2023/09/23 08:10:28;;;;;;;4.90;1.83;;;;;;;;;;5073061;28;20097;-90
2023/09/23 08:12:53;;;;;;;8.73;1.60;;;;;;;;;;5074306;28;20028;-89
2023/09/23 08:15:18;;;;;;;6.68;1.65;;;;;;;;;;5073342;28;20023;-89
2023/09/23 08:17:47;;;;;;;4.05;1.17;;;;;;;;;;5066713;28;20051;-89
2023/09/23 08:20:19;;;;;;;6.05;1.92;;;;;;;;;;5067312;28;20021;-90
2023/09/23 08:22:45;;;;;;;6.30;1.30;;;;;;;;;;5073368;28;20036;-87
2023/09/23 08:25:11;;;;;;;7.80;1.73;;;;;;;;;;5072218;28;20020;-89
2023/09/23 08:27:37;;;;;;;7.05;1.63;;;;;;;;;;5073742;28;20433;-89
2023/09/23 08:30:03;;;;;;;5.35;1.65;;;;;;;;;;5072619;28;20063;-89
2023/09/23 08:32:28;;;;;;;5.53;1.70;;;;;;;;;;5070394;28;20091;-89
2023/09/23 08:34:54;;;;;;;11.65;2.15;;;;;;;;;;5071213;28;20169;-90
2023/09/23 08:37:19;;;;;;;7.90;1.75;;;;;;;;;;5069223;28;20048;-86
2023/09/23 08:39:45;;;;;;;6.88;0.88;;;;;;;;;;5074187;28;20021;-85
2023/09/23 08:42:11;;;;;;;8.40;1.67;;;;;;;;;;5071918;28;20029;-86
2023/09/23 08:44:37;;;;;;;4.85;1.60;;;;;;;;;;5074013;28;20115;-86
2023/09/23 08:47:05;;;;;;;7.22;1.52;;;;;;;;;;5066070;28;20058;-86
2023/09/23 08:49:34;;;;;;;7.07;1.77;;;;;;;;;;5058724;28;20443;-85
2023/09/23 08:52:01;;;;;;;7.07;1.42;;;;;;;;;;5075914;28;20021;-86
2023/09/23 08:54:28;;;;;;;6.78;1.77;;;;;;;;;;5076107;28;20019;-86
2023/09/23 08:56:54;;;;;;;7.55;1.05;;;;;;;;;;5071367;28;20052;-86
2023/09/23 08:59:20;;;;;;;5.93;1.63;;;;;;;;;;5075878;28;20059;-86
2023/09/23 09:01:45;;;;;;;4.50;1.50;;;;;;;;;;5075459;28;20024;-85
2023/09/23 09:04:15;;;;;;;5.57;1.30;;;;;;;;;;5063569;28;20029;-86
2023/09/23 09:06:50;;;;;;;7.55;1.80;;;;;;;;;;5070925;28;20523;-86
2023/09/23 09:09:16;;;;;;;3.60;1.30;;;;;;;;;;5075800;28;20048;-86
2023/09/23 09:11:44;;;;;;;4.40;1.50;;;;;;;;;;5075339;28;20450;-87
2023/09/23 09:14:11;;;;;;;5.45;1.50;;;;;;;;;;5065168;28;20109;-86
2023/09/23 09:16:39;;;;;;;6.55;1.17;;;;;;;;;;5069010;28;20020;-86
2023/09/23 09:19:05;;;;;;;4.63;1.45;;;;;;;;;;5063706;28;20120;-86
2023/09/23 09:21:31;;;;;;;3.30;1.00;;;;;;;;;;5062491;28;20052;-86
2023/09/23 09:23:57;;;;;;;2.65;1.40;;;;;;;;;;5075391;28;20020;-85
2023/09/23 09:26:22;;;;;;;4.80;2.20;;;;;;;;;;5076414;28;20023;-86
2023/09/23 09:28:47;;;;;;;9.75;1.70;;;;;;;;;;5076781;28;20108;-85
2023/09/23 09:31:14;;;;;;;2.75;1.10;;;;;;;;;;5072181;28;20017;-85
2023/09/23 09:33:40;;;;;;;6.30;1.40;;;;;;;;;;5070169;28;20036;-86
2023/09/23 09:36:07;;;;;;;4.10;1.48;;;;;;;;;;5071822;28;20517;-85
2023/09/23 09:38:33;;;;;;;6.13;1.70;;;;;;;;;;5057305;28;20025;-87
2023/09/23 09:41:03;;;;;;;8.32;1.80;;;;;;;;;;5078616;28;20020;-86
2023/09/23 09:43:30;;;;;;;6.50;1.58;;;;;;;;;;5075899;28;20055;-87
2023/09/23 09:45:56;;;;;;;9.27;1.73;;;;;;;;;;5078610;28;20111;-86
2023/09/23 09:48:22;;;;;;;6.65;1.92;;;;;;;;;;5074654;28;20032;-86
2023/09/23 09:50:49;;;;;;;11.60;2.00;;;;;;;;;;5075703;28;20117;-86
2023/09/23 09:53:16;;;;;;;1.90;1.15;;;;;;;;;;5075927;28;20017;-87
2023/09/23 09:55:46;;;;;;;7.13;1.63;;;;;;;;;;5074814;28;20008;-86
2023/09/23 09:58:11;;;;;;;5.32;1.13;;;;;;;;;;5062534;28;20013;-86
2023/09/23 10:00:43;;;;;;;0.30;0.30;;;;;;;;;;5075002;28;20016;-86
2023/09/23 10:03:11;;;;;;;4.50;1.58;;;;;;;;;;5075691;28;20460;-87
2023/09/23 10:05:46;;;;;;;9.15;1.88;;;;;;;;;;5064438;28;20028;-86
2023/09/23 10:08:13;;;;;;;6.57;1.73;;;;;;;;;;5070926;28;20024;-86
2023/09/23 10:10:43;;;;;;;5.55;1.48;;;;;;;;;;5074130;28;20460;-86
2023/09/23 10:13:12;;;;;;;5.22;1.50;;;;;;;;;;5073654;28;20432;-86
2023/09/23 10:15:40;;;;;;;4.72;1.60;;;;;;;;;;5073551;28;20038;-87
2023/09/23 10:18:18;;;;;;;3.95;1.55;;;;;;;;;;5067501;28;20025;-86
2023/09/23 10:20:48;;;;;;;4.78;2.00;;;;;;;;;;5065099;28;20056;-86
2023/09/23 10:23:15;;;;;;;6.35;1.55;;;;;;;;;;5067228;28;20415;-86
2023/09/23 10:25:43;;;;;;;6.05;1.60;;;;;;;;;;5069763;28;20084;-86
2023/09/23 10:28:18;;;;;;;3.75;1.25;;;;;;;;;;5070397;28;20074;-86
2023/09/23 10:30:43;;;;;;;3.58;1.63;;;;;;;;;;5073520;28;20353;-86
2023/09/23 10:33:10;;;;;;;6.00;1.65;;;;;;;;;;5067892;28;20024;-88
2023/09/23 10:35:35;;;;;;;2.08;1.17;;;;;;;;;;5073395;28;20020;-87
2023/09/23 10:38:05;;;;;;;10.10;1.55;;;;;;;;;;5071723;28;20020;-88
2023/09/23 10:40:30;;;;;;;4.25;1.40;;;;;;;;;;5058917;28;20035;-87
2023/09/23 10:43:03;;;;;;;4.07;1.40;;;;;;;;;;5068049;28;20351;-87
2023/09/23 10:45:28;;;;;;;;;;;;;;;;;;5066517;28;20021;-87
2023/09/23 10:47:53;;;;;;;5.10;1.50;;;;;;;;;;5058381;28;19912;-87
2023/09/23 10:50:19;;;;;;;5.65;1.25;;;;;;;;;;5059957;28;20032;-87
2023/09/23 10:52:44;;;;;;;6.95;1.70;;;;;;;;;;5070378;28;20036;-88
2023/09/23 10:55:10;;;;;;;5.20;1.17;;;;;;;;;;5074267;28;20013;-87
2023/09/23 10:57:39;;;;;;;7.93;2.15;;;;;;;;;;5074795;28;20027;-88
2023/09/23 11:00:14;;;;;;;4.22;1.52;;;;;;;;;;5072352;28;20509;-87
2023/09/23 11:02:42;;;;;;;3.65;1.40;;;;;;;;;;5067693;28;20024;-88
2023/09/23 11:05:10;;;;;;;3.72;1.13;;;;;;;;;;5073379;28;20020;-88
2023/09/23 11:07:36;;;;;;;5.38;1.60;;;;;;;;;;5073690;28;20040;-87
2023/09/23 11:10:01;;;;;;;4.22;1.40;;;;;;;;;;5057008;28;20028;-87
2023/09/23 11:12:33;;;;;;;8.68;1.50;;;;;;;;;;5062873;28;20024;-88
2023/09/23 11:15:01;;;;;;;3.38;1.55;;;;;;;;;;5072696;28;20439;-87
2023/09/23 11:17:33;;;;;;;10.02;1.55;;;;;;;;;;5074016;28;20020;-88
2023/09/23 11:19:59;;;;;;;3.30;1.02;;;;;;;;;;5069028;28;20029;-88
2023/09/23 11:22:28;;;;;;;5.90;1.27;;;;;;;;;;5065634;28;20028;-87
2023/09/23 11:24:59;;;;;;;5.20;1.70;;;;;;;;;;5069109;28;20098;-86
2023/09/23 11:27:24;;;;;;;11.32;1.63;;;;;;;;;;5066590;28;20017;-87
2023/09/23 11:29:55;;;;;;;4.95;1.40;;;;;;;;;;5068420;28;20070;-88
2023/09/23 11:32:24;;;;;;;8.40;1.50;;;;;;;;;;5062791;28;20145;-88
2023/09/23 11:34:50;;;;;;;4.53;1.30;;;;;;;;;;5067358;28;20024;-88
2023/09/23 11:37:20;;;;;;;5.47;1.20;;;;;;;;;;5062153;28;20078;-88
2023/09/23 11:39:46;;;;;;;8.30;1.88;;;;;;;;;;5066906;28;20252;-87
2023/09/23 11:42:11;;;;;;;7.10;1.20;;;;;;;;;;5065358;28;20031;-87
2023/09/23 11:44:36;;;;;;;7.30;1.67;;;;;;;;;;5072388;28;20074;-86
2023/09/23 11:47:01;;;;;;;4.80;1.00;;;;;;;;;;5065293;28;20024;-86
2023/09/23 11:49:27;;;;;;;3.58;1.63;;;;;;;;;;5062891;28;20167;-89
2023/09/23 11:51:52;;;;;;;3.92;1.05;;;;;;;;;;5066354;28;20017;-87
2023/09/23 11:54:18;;;;;;;4.43;0.93;;;;;;;;;;5071497;28;20077;-88
2023/09/23 11:56:43;;;;;;;4.45;1.20;;;;;;;;;;5067931;28;20377;-87
2023/09/23 11:59:08;;;;;;;4.65;1.00;;;;;;;;;;5062050;28;20025;-87
2023/09/23 12:01:34;;;;;;;4.65;1.10;;;;;;;;;;5052650;28;20464;-87
2023/09/23 12:03:59;;;;;;;4.50;0.90;;;;;;;;;;5067191;28;20035;-87
2023/09/23 12:06:25;;;;;;;4.10;0.95;;;;;;;;;;5070256;28;20031;-87
2023/09/23 12:08:51;;;;;;;4.55;1.15;;;;;;;;;;5067608;28;20138;-87
2023/09/23 12:11:17;;;;;;;3.05;1.42;;;;;;;;;;5068878;28;20024;-88
2023/09/23 12:13:43;;;;;;;2.55;1.17;;;;;;;;;;5071003;28;20032;-87
2023/09/23 12:16:08;;;;;;;5.40;1.23;;;;;;;;;;5069289;28;20054;-86
2023/09/23 12:18:34;;;;;;;4.15;1.38;;;;;;;;;;5069318;28;20013;-87
2023/09/23 12:20:59;;;;;;;5.18;1.60;;;;;;;;;;5072907;28;20086;-89
2023/09/23 12:23:25;;;;;;;6.13;1.48;;;;;;;;;;5057506;28;20527;-86
2023/09/23 12:25:53;;;;;;;4.20;0.60;;;;;;;;;;5063158;28;20102;-87
2023/09/23 12:28:18;;;;;;;2.90;0.93;;;;;;;;;;5060793;28;20029;-85
2023/09/23 12:30:43;;;;;;;4.22;1.27;;;;;;;;;;5068258;28;20196;-86
2023/09/23 12:33:09;;;;;;;3.55;0.93;;;;;;;;;;5072912;28;20017;-86
2023/09/23 12:35:34;;;;;;;1.98;0.75;;;;;;;;;;5068922;28;20028;-86
2023/09/23 12:38:00;;;;;;;3.95;1.13;;;;;;;;;;5067870;28;20092;-86
2023/09/23 12:40:26;;;;;;;5.70;0.90;;;;;;;;;;5071241;28;20328;-83
2023/09/23 12:42:51;;;;;;;4.32;0.98;;;;;;;;;;5071577;28;20017;-85
2023/09/23 12:45:17;;;;;;;1.52;0.70;;;;;;;;;;5069938;28;20027;-85
2023/09/23 12:47:43;;;;;;;4.25;1.02;;;;;;;;;;5068465;28;20107;-85
2023/09/23 12:50:09;;;;;;;8.13;1.52;;;;;;;;;;5067148;28;20037;-86
2023/09/23 12:52:36;;;;;;;1.58;0.80;;;;;;;;;;5054896;28;20116;-85
2023/09/23 12:55:04;;;;;;;2.55;0.77;;;;;;;;;;5071596;28;20039;-86
2023/09/23 12:57:35;;;;;;;1.00;0.55;;;;;;;;;;5070716;28;20426;-87
2023/09/23 13:00:02;;;;;;;3.88;1.05;;;;;;;;;;5071491;28;20067;-87
2023/09/23 13:02:28;;;;;;;6.07;0.88;;;;;;;;;;5072052;28;20124;-87
2023/09/23 13:04:56;;;;;;;2.20;0.80;;;;;;;;;;5072629;28;20084;-86
2023/09/23 13:07:22;;;;;;;4.88;0.90;;;;;;;;;;5071312;28;20107;-88
2023/09/23 13:09:48;;;;;;;2.72;0.98;;;;;;;;;;5071852;28;20157;-87
2023/09/23 13:12:13;;;;;;;8.40;1.00;;;;;;;;;;5071426;28;20020;-89
2023/09/23 13:14:39;;;;;;;1.65;0.60;;;;;;;;;;5070829;28;20047;-89
2023/09/23 13:17:06;;;;;;;1.92;0.93;;;;;;;;;;5064113;28;20040;-87
2023/09/23 13:19:31;;;;;;;3.95;0.90;;;;;;;;;;5072291;28;20429;-87
2023/09/23 13:21:56;;;;;;;6.18;0.95;;;;;;;;;;5062534;28;20021;-86
2023/09/23 13:24:22;;;;;;;4.82;0.98;;;;;;;;;;5075273;28;20016;-86
2023/09/23 13:26:47;;;;;;;6.90;0.90;;;;;;;;;;5064097;28;20051;-87
2023/09/23 13:29:16;;;;;;;8.55;1.20;;;;;;;;;;5065858;28;20027;-86
2023/09/23 13:31:42;;;;;;;3.67;0.80;;;;;;;;;;5074689;28;20029;-86
2023/09/23 13:34:09;;;;;;;1.92;0.77;;;;;;;;;;5072339;28;20020;-86
2023/09/23 13:36:34;;;;;;;4.15;0.73;;;;;;;;;;5076581;28;20081;-87
2023/09/23 13:39:00;;;;;;;2.80;0.70;;;;;;;;;;5077396;28;20016;-86
2023/09/23 13:41:25;;;;;;;3.83;0.73;;;;;;;;;;5071009;28;20020;-86
2023/09/23 13:43:50;;;;;;;5.90;0.90;;;;;;;;;;5070440;28;20028;-86
2023/09/23 13:46:16;;;;;;;3.53;0.90;;;;;;;;;;5063342;28;20043;-86
2023/09/23 13:48:41;;;;;;;8.32;0.90;;;;;;;;;;5071456;28;20040;-86
2023/09/23 13:51:06;;;;;;;7.07;0.93;;;;;;;;;;5074797;28;20173;-86
2023/09/23 13:53:32;;;;;;;1.83;0.70;;;;;;;;;;5066701;28;20477;-86
2023/09/23 13:55:57;;;;;;;3.92;1.35;;;;;;;;;;5074896;28;20078;-87
2023/09/23 13:58:22;;;;;;;1.88;0.90;;;;;;;;;;5063718;28;20029;-87
2023/09/23 14:00:48;;;;;;;3.70;1.05;;;;;;;;;;5063141;28;20025;-86
2023/09/23 14:03:16;;;;;;;3.42;0.90;;;;;;;;;;5062918;28;20031;-85
2023/09/23 14:05:41;;;;;;;3.15;1.15;;;;;;;;;;5071395;28;20028;-86
2023/09/23 14:08:08;;;;;;;5.32;1.58;;;;;;;;;;5068635;28;20539;-86
2023/09/23 14:10:33;;;;;;;3.28;1.08;;;;;;;;;;5060188;28;20412;-85
2023/09/23 14:12:59;;;;;;;3.55;1.35;;;;;;;;;;5068346;28;20021;-86
2023/09/23 14:15:24;;;;;;;8.15;1.13;;;;;;;;;;5074026;28;20460;-86
2023/09/23 14:17:49;;;;;;;1.70;1.02;;;;;;;;;;5069663;28;20017;-86
2023/09/23 14:20:15;;;;;;;3.40;0.93;;;;;;;;;;5086934;28;20591;-86
2023/09/23 14:22:45;;;;;;;5.75;1.17;;;;;;;;;;5056886;28;20105;-85
2023/09/23 14:25:10;;;;;;;3.35;1.15;;;;;;;;;;5070740;28;20016;-85
2023/09/23 14:27:35;;;;;;;5.38;1.27;;;;;;;;;;5067692;28;20092;-84
2023/09/23 14:30:01;;;;;;;4.20;1.20;;;;;;;;;;5073232;28;20032;-85
2023/09/23 14:32:26;;;;;;;5.03;1.83;;;;;;;;;;5066520;28;20063;-85
2023/09/23 14:34:54;;;;;;;5.22;1.55;;;;;;;;;;5073382;28;20047;-84
2023/09/23 14:37:19;;;;;;;5.72;1.70;;;;;;;;;;5073412;28;20020;-85
2023/09/23 14:39:45;;;;;;;3.80;1.80;;;;;;;;;;5071081;28;20028;-84